sensor_id;sensor_type;location;lat;lon;timestamp;temperature;humidity
4509;DHT22;2267;48.816;9.230;2023-10-13T00:02:02;19.60;98.60
4509;DHT22;2267;48.816;9.230;2023-10-13T00:04:34;19.60;98.50
4509;DHT22;2267;48.816;9.230;2023-10-13T00:07:04;19.60;98.00
4509;DHT22;2267;48.816;9.230;2023-10-13T00:09:31;19.60;98.00
4509;DHT22;2267;48.816;9.230;2023-10-13T00:12:05;19.60;98.00
4509;DHT22;2267;48.816;9.230;2023-10-13T00:14:41;19.60;97.70
4509;DHT22;2267;48.816;9.230;2023-10-13T00:17:12;19.60;97.60
4509;DHT22;2267;48.816;9.230;2023-10-13T00:19:46;19.60;97.50
4509;DHT22;2267;48.816;9.230;2023-10-13T00:22:19;19.60;97.70
4509;DHT22;2267;48.816;9.230;2023-10-13T00:24:46;19.50;97.60
4509;DHT22;2267;48.816;9.230;2023-10-13T00:27:16;19.50;97.50
4509;DHT22;2267;48.816;9.230;2023-10-13T00:29:59;19.50;97.20
4509;DHT22;2267;48.816;9.230;2023-10-13T00:32:49;19.50;97.10
4509;DHT22;2267;48.816;9.230;2023-10-13T00:35:29;19.50;97.00
4509;DHT22;2267;48.816;9.230;2023-10-13T00:38:04;19.40;97.00
4509;DHT22;2267;48.816;9.230;2023-10-13T00:40:40;19.40;97.00
4509;DHT22;2267;48.816;9.230;2023-10-13T00:43:07;19.40;97.10
4509;DHT22;2267;48.816;9.230;2023-10-13T00:45:55;19.30;97.00
4509;DHT22;2267;48.816;9.230;2023-10-13T00:48:32;19.30;97.10
4509;DHT22;2267;48.816;9.230;2023-10-13T00:51:01;19.30;97.10
4509;DHT22;2267;48.816;9.230;2023-10-13T00:53:34;19.20;96.90
4509;DHT22;2267;48.816;9.230;2023-10-13T00:56:07;19.20;96.80
4509;DHT22;2267;48.816;9.230;2023-10-13T00:58:35;19.20;97.00
4509;DHT22;2267;48.816;9.230;2023-10-13T01:01:02;19.20;97.00
4509;DHT22;2267;48.816;9.230;2023-10-13T01:03:53;19.20;97.10
4509;DHT22;2267;48.816;9.230;2023-10-13T01:06:29;19.10;97.10
4509;DHT22;2267;48.816;9.230;2023-10-13T01:09:04;19.10;97.40
4509;DHT22;2267;48.816;9.230;2023-10-13T01:11:45;19.10;97.30
4509;DHT22;2267;48.816;9.230;2023-10-13T01:14:14;19.10;97.50
4509;DHT22;2267;48.816;9.230;2023-10-13T01:16:50;19.00;97.60
4509;DHT22;2267;48.816;9.230;2023-10-13T01:19:20;19.00;97.60
4509;DHT22;2267;48.816;9.230;2023-10-13T01:21:52;19.00;97.40
4509;DHT22;2267;48.816;9.230;2023-10-13T01:24:30;19.00;97.20
4509;DHT22;2267;48.816;9.230;2023-10-13T01:27:05;19.00;97.30
4509;DHT22;2267;48.816;9.230;2023-10-13T01:29:54;19.00;97.30
4509;DHT22;2267;48.816;9.230;2023-10-13T01:32:32;19.00;97.20
4509;DHT22;2267;48.816;9.230;2023-10-13T01:35:00;18.90;97.20
4509;DHT22;2267;48.816;9.230;2023-10-13T01:37:32;18.90;97.30
4509;DHT22;2267;48.816;9.230;2023-10-13T01:39:59;18.90;97.10
4509;DHT22;2267;48.816;9.230;2023-10-13T01:42:26;18.90;97.20
4509;DHT22;2267;48.816;9.230;2023-10-13T01:44:55;18.80;97.10
4509;DHT22;2267;48.816;9.230;2023-10-13T01:47:24;18.80;97.10
4509;DHT22;2267;48.816;9.230;2023-10-13T01:49:54;18.80;97.00
4509;DHT22;2267;48.816;9.230;2023-10-13T01:52:25;18.80;97.10
4509;DHT22;2267;48.816;9.230;2023-10-13T01:54:54;18.80;96.90
4509;DHT22;2267;48.816;9.230;2023-10-13T01:57:21;18.70;96.80
4509;DHT22;2267;48.816;9.230;2023-10-13T01:59:50;18.70;96.50
4509;DHT22;2267;48.816;9.230;2023-10-13T02:02:17;18.70;96.30
4509;DHT22;2267;48.816;9.230;2023-10-13T02:04:56;18.70;96.50
4509;DHT22;2267;48.816;9.230;2023-10-13T02:07:27;18.70;96.60
4509;DHT22;2267;48.816;9.230;2023-10-13T02:09:57;18.60;96.60
4509;DHT22;2267;48.816;9.230;2023-10-13T02:12:24;18.60;96.60
4509;DHT22;2267;48.816;9.230;2023-10-13T02:15:03;18.60;96.40
4509;DHT22;2267;48.816;9.230;2023-10-13T02:17:31;18.60;96.00
4509;DHT22;2267;48.816;9.230;2023-10-13T02:20:09;18.50;96.00
4509;DHT22;2267;48.816;9.230;2023-10-13T02:22:41;18.50;96.00
4509;DHT22;2267;48.816;9.230;2023-10-13T02:25:17;18.50;95.90
4509;DHT22;2267;48.816;9.230;2023-10-13T02:28:02;18.50;95.60
4509;DHT22;2267;48.816;9.230;2023-10-13T02:30:29;18.50;95.00
4509;DHT22;2267;48.816;9.230;2023-10-13T02:32:56;18.40;95.00
4509;DHT22;2267;48.816;9.230;2023-10-13T02:35:24;18.40;95.00
4509;DHT22;2267;48.816;9.230;2023-10-13T02:37:57;18.40;94.90
4509;DHT22;2267;48.816;9.230;2023-10-13T02:40:35;18.40;94.90
4509;DHT22;2267;48.816;9.230;2023-10-13T02:43:03;18.40;94.70
4509;DHT22;2267;48.816;9.230;2023-10-13T02:45:34;18.40;94.70
4509;DHT22;2267;48.816;9.230;2023-10-13T02:48:04;18.40;94.60
4509;DHT22;2267;48.816;9.230;2023-10-13T02:50:59;18.40;94.40
4509;DHT22;2267;48.816;9.230;2023-10-13T02:53:32;18.30;94.30
4509;DHT22;2267;48.816;9.230;2023-10-13T02:55:59;18.30;94.50
4509;DHT22;2267;48.816;9.230;2023-10-13T02:58:33;18.30;94.40
4509;DHT22;2267;48.816;9.230;2023-10-13T03:01:09;18.30;94.40
4509;DHT22;2267;48.816;9.230;2023-10-13T03:03:50;18.30;94.50
4509;DHT22;2267;48.816;9.230;2023-10-13T03:06:26;18.30;94.50
4509;DHT22;2267;48.816;9.230;2023-10-13T03:09:03;18.30;94.30
4509;DHT22;2267;48.816;9.230;2023-10-13T03:11:49;18.20;94.20
4509;DHT22;2267;48.816;9.230;2023-10-13T03:14:21;18.20;93.90
4509;DHT22;2267;48.816;9.230;2023-10-13T03:16:59;18.30;93.60
4509;DHT22;2267;48.816;9.230;2023-10-13T03:19:30;18.30;94.00
4509;DHT22;2267;48.816;9.230;2023-10-13T03:22:02;18.30;93.20
4509;DHT22;2267;48.816;9.230;2023-10-13T03:24:39;18.30;93.30
4509;DHT22;2267;48.816;9.230;2023-10-13T03:27:21;18.30;93.70
4509;DHT22;2267;48.816;9.230;2023-10-13T03:29:51;18.30;94.00
4509;DHT22;2267;48.816;9.230;2023-10-13T03:32:22;18.30;93.60
4509;DHT22;2267;48.816;9.230;2023-10-13T03:34:53;18.30;93.20
4509;DHT22;2267;48.816;9.230;2023-10-13T03:37:39;18.30;92.70
4509;DHT22;2267;48.816;9.230;2023-10-13T03:40:12;18.40;92.60
4509;DHT22;2267;48.816;9.230;2023-10-13T03:42:53;18.40;92.40
4509;DHT22;2267;48.816;9.230;2023-10-13T03:45:40;18.40;92.60
4509;DHT22;2267;48.816;9.230;2023-10-13T03:48:11;18.40;92.60
4509;DHT22;2267;48.816;9.230;2023-10-13T03:51:00;18.40;92.50
4509;DHT22;2267;48.816;9.230;2023-10-13T03:53:31;18.30;92.50
4509;DHT22;2267;48.816;9.230;2023-10-13T03:56:02;18.30;93.00
4509;DHT22;2267;48.816;9.230;2023-10-13T03:58:36;18.30;94.00
4509;DHT22;2267;48.816;9.230;2023-10-13T04:01:05;18.30;93.90
4509;DHT22;2267;48.816;9.230;2023-10-13T04:03:32;18.20;93.40
4509;DHT22;2267;48.816;9.230;2023-10-13T04:06:06;18.20;92.80
4509;DHT22;2267;48.816;9.230;2023-10-13T04:08:33;18.30;92.30
4509;DHT22;2267;48.816;9.230;2023-10-13T04:11:14;18.30;92.20
4509;DHT22;2267;48.816;9.230;2023-10-13T04:14:00;18.30;92.10
4509;DHT22;2267;48.816;9.230;2023-10-13T04:16:33;18.30;91.90
4509;DHT22;2267;48.816;9.230;2023-10-13T04:19:01;18.30;91.90
4509;DHT22;2267;48.816;9.230;2023-10-13T04:21:28;18.30;91.90
4509;DHT22;2267;48.816;9.230;2023-10-13T04:24:22;18.30;91.80
4509;DHT22;2267;48.816;9.230;2023-10-13T04:27:04;18.30;91.80
4509;DHT22;2267;48.816;9.230;2023-10-13T04:30:07;18.30;91.60
4509;DHT22;2267;48.816;9.230;2023-10-13T04:32:34;18.30;91.80
4509;DHT22;2267;48.816;9.230;2023-10-13T04:35:05;18.30;92.10
4509;DHT22;2267;48.816;9.230;2023-10-13T04:37:44;18.30;92.30
4509;DHT22;2267;48.816;9.230;2023-10-13T04:40:21;18.20;92.20
4509;DHT22;2267;48.816;9.230;2023-10-13T04:42:52;18.30;92.00
4509;DHT22;2267;48.816;9.230;2023-10-13T04:45:31;18.20;92.00
4509;DHT22;2267;48.816;9.230;2023-10-13T04:47:59;18.20;92.00
4509;DHT22;2267;48.816;9.230;2023-10-13T04:50:59;18.20;92.10
4509;DHT22;2267;48.816;9.230;2023-10-13T04:53:47;18.20;92.00
4509;DHT22;2267;48.816;9.230;2023-10-13T04:56:32;18.20;92.00
4509;DHT22;2267;48.816;9.230;2023-10-13T04:59:08;18.20;92.10
4509;DHT22;2267;48.816;9.230;2023-10-13T05:01:53;18.20;92.60
4509;DHT22;2267;48.816;9.230;2023-10-13T05:04:23;18.10;92.20
4509;DHT22;2267;48.816;9.230;2023-10-13T05:07:26;18.10;92.10
4509;DHT22;2267;48.816;9.230;2023-10-13T05:10:11;18.20;92.20
4509;DHT22;2267;48.816;9.230;2023-10-13T05:12:56;18.10;92.10
4509;DHT22;2267;48.816;9.230;2023-10-13T05:15:47;18.10;92.00
4509;DHT22;2267;48.816;9.230;2023-10-13T05:18:33;18.10;92.00
4509;DHT22;2267;48.816;9.230;2023-10-13T05:21:19;18.10;92.00
4509;DHT22;2267;48.816;9.230;2023-10-13T05:24:05;18.10;92.10
4509;DHT22;2267;48.816;9.230;2023-10-13T05:26:51;18.10;92.10
4509;DHT22;2267;48.816;9.230;2023-10-13T05:29:44;18.10;92.20
4509;DHT22;2267;48.816;9.230;2023-10-13T05:32:30;18.10;92.10
4509;DHT22;2267;48.816;9.230;2023-10-13T05:35:16;18.10;92.20
4509;DHT22;2267;48.816;9.230;2023-10-13T05:38:02;18.10;92.10
4509;DHT22;2267;48.816;9.230;2023-10-13T05:41:01;18.00;92.30
4509;DHT22;2267;48.816;9.230;2023-10-13T05:43:51;18.00;92.10
4509;DHT22;2267;48.816;9.230;2023-10-13T05:46:37;18.00;92.20
4509;DHT22;2267;48.816;9.230;2023-10-13T05:49:09;18.00;92.30
4509;DHT22;2267;48.816;9.230;2023-10-13T05:51:55;18.00;92.30
4509;DHT22;2267;48.816;9.230;2023-10-13T05:54:46;18.00;92.30
4509;DHT22;2267;48.816;9.230;2023-10-13T05:57:32;18.00;92.10
4509;DHT22;2267;48.816;9.230;2023-10-13T06:00:17;18.00;92.20
4509;DHT22;2267;48.816;9.230;2023-10-13T06:03:03;18.00;92.40
4509;DHT22;2267;48.816;9.230;2023-10-13T06:05:48;18.00;92.10
4509;DHT22;2267;48.816;9.230;2023-10-13T06:08:34;18.00;92.00
4509;DHT22;2267;48.816;9.230;2023-10-13T06:11:20;18.10;92.10
4509;DHT22;2267;48.816;9.230;2023-10-13T06:14:05;18.10;92.10
4509;DHT22;2267;48.816;9.230;2023-10-13T06:16:50;18.10;92.10
4509;DHT22;2267;48.816;9.230;2023-10-13T06:19:36;18.10;92.20
4509;DHT22;2267;48.816;9.230;2023-10-13T06:22:21;18.10;92.10
4509;DHT22;2267;48.816;9.230;2023-10-13T06:25:07;18.20;92.20
4509;DHT22;2267;48.816;9.230;2023-10-13T06:27:52;18.20;92.20
4509;DHT22;2267;48.816;9.230;2023-10-13T06:30:37;18.20;92.20
4509;DHT22;2267;48.816;9.230;2023-10-13T06:33:04;18.20;92.20
4509;DHT22;2267;48.816;9.230;2023-10-13T06:35:31;18.20;92.20
4509;DHT22;2267;48.816;9.230;2023-10-13T06:37:58;18.20;92.20
4509;DHT22;2267;48.816;9.230;2023-10-13T06:40:27;18.20;92.20
4509;DHT22;2267;48.816;9.230;2023-10-13T06:43:00;18.20;92.20
4509;DHT22;2267;48.816;9.230;2023-10-13T06:45:46;18.20;92.40
4509;DHT22;2267;48.816;9.230;2023-10-13T06:48:25;18.20;92.40
4509;DHT22;2267;48.816;9.230;2023-10-13T06:50:52;18.20;92.50
4509;DHT22;2267;48.816;9.230;2023-10-13T06:53:19;18.30;92.60
4509;DHT22;2267;48.816;9.230;2023-10-13T06:55:46;18.30;93.00
4509;DHT22;2267;48.816;9.230;2023-10-13T06:58:14;18.30;92.70
4509;DHT22;2267;48.816;9.230;2023-10-13T07:00:43;18.30;92.70
4509;DHT22;2267;48.816;9.230;2023-10-13T07:03:19;18.30;92.60
4509;DHT22;2267;48.816;9.230;2023-10-13T07:05:48;18.30;92.60
4509;DHT22;2267;48.816;9.230;2023-10-13T07:08:15;18.40;92.50
4509;DHT22;2267;48.816;9.230;2023-10-13T07:10:56;18.40;92.60
4509;DHT22;2267;48.816;9.230;2023-10-13T07:13:29;18.40;92.30
4509;DHT22;2267;48.816;9.230;2023-10-13T07:15:56;18.40;92.80
4509;DHT22;2267;48.816;9.230;2023-10-13T07:18:37;18.40;92.30
4509;DHT22;2267;48.816;9.230;2023-10-13T07:21:13;18.50;92.40
4509;DHT22;2267;48.816;9.230;2023-10-13T07:23:40;18.50;92.40
4509;DHT22;2267;48.816;9.230;2023-10-13T07:26:09;18.50;92.30
4509;DHT22;2267;48.816;9.230;2023-10-13T07:28:40;18.50;92.20
4509;DHT22;2267;48.816;9.230;2023-10-13T07:31:13;18.50;92.50
4509;DHT22;2267;48.816;9.230;2023-10-13T07:33:43;18.60;92.10
4509;DHT22;2267;48.816;9.230;2023-10-13T07:36:10;18.60;92.10
4509;DHT22;2267;48.816;9.230;2023-10-13T07:38:45;18.60;91.90
4509;DHT22;2267;48.816;9.230;2023-10-13T07:41:31;18.70;91.90
4509;DHT22;2267;48.816;9.230;2023-10-13T07:43:59;18.70;91.90
4509;DHT22;2267;48.816;9.230;2023-10-13T07:46:26;18.70;91.50
4509;DHT22;2267;48.816;9.230;2023-10-13T07:48:58;18.70;91.40
4509;DHT22;2267;48.816;9.230;2023-10-13T07:51:40;18.80;91.40
4509;DHT22;2267;48.816;9.230;2023-10-13T07:54:13;18.80;91.30
4509;DHT22;2267;48.816;9.230;2023-10-13T07:56:48;18.80;91.10
4509;DHT22;2267;48.816;9.230;2023-10-13T07:59:15;18.80;91.10
4509;DHT22;2267;48.816;9.230;2023-10-13T08:01:42;18.90;91.10
4509;DHT22;2267;48.816;9.230;2023-10-13T08:04:12;18.90;91.00
4509;DHT22;2267;48.816;9.230;2023-10-13T08:06:39;19.00;91.00
4509;DHT22;2267;48.816;9.230;2023-10-13T08:09:10;19.00;91.00
4509;DHT22;2267;48.816;9.230;2023-10-13T08:11:57;19.10;90.80
4509;DHT22;2267;48.816;9.230;2023-10-13T08:14:24;19.10;90.80
4509;DHT22;2267;48.816;9.230;2023-10-13T08:17:08;19.20;90.90
4509;DHT22;2267;48.816;9.230;2023-10-13T08:19:38;19.30;90.90
4509;DHT22;2267;48.816;9.230;2023-10-13T08:22:14;19.30;90.90
4509;DHT22;2267;48.816;9.230;2023-10-13T08:24:49;19.40;90.50
4509;DHT22;2267;48.816;9.230;2023-10-13T08:27:18;19.50;90.30
4509;DHT22;2267;48.816;9.230;2023-10-13T08:30:03;19.60;90.20
4509;DHT22;2267;48.816;9.230;2023-10-13T08:32:48;19.60;89.80
4509;DHT22;2267;48.816;9.230;2023-10-13T08:35:21;19.80;89.60
4509;DHT22;2267;48.816;9.230;2023-10-13T08:37:50;19.80;88.90
4509;DHT22;2267;48.816;9.230;2023-10-13T08:40:22;19.90;87.80
4509;DHT22;2267;48.816;9.230;2023-10-13T08:43:19;20.00;87.60
4509;DHT22;2267;48.816;9.230;2023-10-13T08:45:46;20.10;87.50
4509;DHT22;2267;48.816;9.230;2023-10-13T08:48:13;20.20;87.10
4509;DHT22;2267;48.816;9.230;2023-10-13T08:50:47;20.30;86.80
4509;DHT22;2267;48.816;9.230;2023-10-13T08:53:21;20.40;87.00
4509;DHT22;2267;48.816;9.230;2023-10-13T08:56:08;20.50;86.40
4509;DHT22;2267;48.816;9.230;2023-10-13T08:58:48;20.70;86.30
4509;DHT22;2267;48.816;9.230;2023-10-13T09:01:29;20.80;85.80
4509;DHT22;2267;48.816;9.230;2023-10-13T09:04:17;20.90;84.30
4509;DHT22;2267;48.816;9.230;2023-10-13T09:07:06;21.00;84.60
4509;DHT22;2267;48.816;9.230;2023-10-13T09:12:38;21.20;82.80
4509;DHT22;2267;48.816;9.230;2023-10-13T09:15:08;21.30;82.60
4509;DHT22;2267;48.816;9.230;2023-10-13T09:17:47;21.40;82.10
4509;DHT22;2267;48.816;9.230;2023-10-13T09:20:35;21.50;81.40
4509;DHT22;2267;48.816;9.230;2023-10-13T09:23:12;21.60;81.00
4509;DHT22;2267;48.816;9.230;2023-10-13T09:25:53;21.60;80.50
4509;DHT22;2267;48.816;9.230;2023-10-13T09:28:21;21.90;80.40
4509;DHT22;2267;48.816;9.230;2023-10-13T09:30:50;22.00;79.80
4509;DHT22;2267;48.816;9.230;2023-10-13T09:33:21;22.10;79.00
4509;DHT22;2267;48.816;9.230;2023-10-13T09:35:56;22.20;78.70
4509;DHT22;2267;48.816;9.230;2023-10-13T09:38:30;22.40;78.30
4509;DHT22;2267;48.816;9.230;2023-10-13T09:40:59;22.50;77.50
4509;DHT22;2267;48.816;9.230;2023-10-13T09:43:45;22.60;77.00
4509;DHT22;2267;48.816;9.230;2023-10-13T09:46:19;22.80;77.00
4509;DHT22;2267;48.816;9.230;2023-10-13T09:48:51;22.90;75.70
4509;DHT22;2267;48.816;9.230;2023-10-13T09:51:42;23.00;75.40
4509;DHT22;2267;48.816;9.230;2023-10-13T09:54:24;23.10;75.10
4509;DHT22;2267;48.816;9.230;2023-10-13T09:57:10;23.30;75.20
4509;DHT22;2267;48.816;9.230;2023-10-13T09:59:51;23.50;70.00
4509;DHT22;2267;48.816;9.230;2023-10-13T10:02:20;23.50;69.90
4509;DHT22;2267;48.816;9.230;2023-10-13T10:04:54;23.60;67.30
4509;DHT22;2267;48.816;9.230;2023-10-13T10:07:26;23.60;66.80
4509;DHT22;2267;48.816;9.230;2023-10-13T10:09:57;23.60;65.80
4509;DHT22;2267;48.816;9.230;2023-10-13T10:15:16;24.00;64.90
4509;DHT22;2267;48.816;9.230;2023-10-13T10:17:54;24.20;64.40
4509;DHT22;2267;48.816;9.230;2023-10-13T10:20:33;24.40;63.40
4509;DHT22;2267;48.816;9.230;2023-10-13T10:23:23;24.60;63.20
4509;DHT22;2267;48.816;9.230;2023-10-13T10:25:50;24.80;62.50
4509;DHT22;2267;48.816;9.230;2023-10-13T10:28:18;25.00;62.20
4509;DHT22;2267;48.816;9.230;2023-10-13T10:30:47;25.10;61.60
4509;DHT22;2267;48.816;9.230;2023-10-13T10:33:14;25.10;61.30
4509;DHT22;2267;48.816;9.230;2023-10-13T10:35:46;25.10;61.40
4509;DHT22;2267;48.816;9.230;2023-10-13T10:38:13;25.00;60.50
4509;DHT22;2267;48.816;9.230;2023-10-13T10:41:02;25.10;59.60
4509;DHT22;2267;48.816;9.230;2023-10-13T10:43:39;25.10;59.80
4509;DHT22;2267;48.816;9.230;2023-10-13T10:46:25;25.20;59.90
4509;DHT22;2267;48.816;9.230;2023-10-13T10:48:55;25.30;59.40
4509;DHT22;2267;48.816;9.230;2023-10-13T10:51:29;25.30;59.00
4509;DHT22;2267;48.816;9.230;2023-10-13T10:53:59;25.20;59.10
4509;DHT22;2267;48.816;9.230;2023-10-13T10:56:38;25.30;59.10
4509;DHT22;2267;48.816;9.230;2023-10-13T10:59:05;25.40;58.90
4509;DHT22;2267;48.816;9.230;2023-10-13T11:01:45;25.40;58.10
4509;DHT22;2267;48.816;9.230;2023-10-13T11:04:18;25.50;58.90
4509;DHT22;2267;48.816;9.230;2023-10-13T11:06:48;25.70;58.80
4509;DHT22;2267;48.816;9.230;2023-10-13T11:09:33;25.80;58.60
4509;DHT22;2267;48.816;9.230;2023-10-13T11:12:14;25.80;57.80
4509;DHT22;2267;48.816;9.230;2023-10-13T11:14:43;25.80;57.60
4509;DHT22;2267;48.816;9.230;2023-10-13T11:17:20;25.80;57.30
4509;DHT22;2267;48.816;9.230;2023-10-13T11:19:52;26.00;57.40
4509;DHT22;2267;48.816;9.230;2023-10-13T11:22:21;26.20;57.30
4509;DHT22;2267;48.816;9.230;2023-10-13T11:25:04;26.30;56.90
4509;DHT22;2267;48.816;9.230;2023-10-13T11:27:41;26.60;57.00
4509;DHT22;2267;48.816;9.230;2023-10-13T11:30:12;26.80;56.40
4509;DHT22;2267;48.816;9.230;2023-10-13T11:32:42;27.10;56.30
4509;DHT22;2267;48.816;9.230;2023-10-13T11:35:10;27.20;55.50
4509;DHT22;2267;48.816;9.230;2023-10-13T11:37:50;27.30;55.20
4509;DHT22;2267;48.816;9.230;2023-10-13T11:40:30;27.50;55.10
4509;DHT22;2267;48.816;9.230;2023-10-13T11:43:34;27.60;54.70
4509;DHT22;2267;48.816;9.230;2023-10-13T11:46:10;27.70;54.00
4509;DHT22;2267;48.816;9.230;2023-10-13T11:48:44;27.80;52.90
4509;DHT22;2267;48.816;9.230;2023-10-13T11:51:14;27.90;52.80
4509;DHT22;2267;48.816;9.230;2023-10-13T11:53:44;28.00;53.00
4509;DHT22;2267;48.816;9.230;2023-10-13T11:56:12;28.20;53.10
4509;DHT22;2267;48.816;9.230;2023-10-13T11:58:39;28.20;52.60
4509;DHT22;2267;48.816;9.230;2023-10-13T12:01:07;28.40;52.80
4509;DHT22;2267;48.816;9.230;2023-10-13T12:03:44;28.60;53.40
4509;DHT22;2267;48.816;9.230;2023-10-13T12:06:30;28.70;51.50
4509;DHT22;2267;48.816;9.230;2023-10-13T12:09:03;28.80;51.10
4509;DHT22;2267;48.816;9.230;2023-10-13T12:11:43;28.90;51.50
4509;DHT22;2267;48.816;9.230;2023-10-13T12:14:12;29.10;51.30
4509;DHT22;2267;48.816;9.230;2023-10-13T12:16:54;29.20;51.00
4509;DHT22;2267;48.816;9.230;2023-10-13T12:19:23;29.20;50.70
4509;DHT22;2267;48.816;9.230;2023-10-13T12:21:51;29.40;50.90
4509;DHT22;2267;48.816;9.230;2023-10-13T12:27:04;29.50;50.70
4509;DHT22;2267;48.816;9.230;2023-10-13T12:29:47;29.80;50.50
4509;DHT22;2267;48.816;9.230;2023-10-13T12:32:14;29.80;49.70
4509;DHT22;2267;48.816;9.230;2023-10-13T12:34:47;29.90;49.40
4509;DHT22;2267;48.816;9.230;2023-10-13T12:37:43;29.90;49.00
4509;DHT22;2267;48.816;9.230;2023-10-13T12:40:14;30.00;48.80
4509;DHT22;2267;48.816;9.230;2023-10-13T12:43:00;30.10;49.10
4509;DHT22;2267;48.816;9.230;2023-10-13T12:45:47;30.00;48.70
4509;DHT22;2267;48.816;9.230;2023-10-13T12:48:34;30.00;49.00
4509;DHT22;2267;48.816;9.230;2023-10-13T12:51:20;30.00;49.10
4509;DHT22;2267;48.816;9.230;2023-10-13T12:53:48;30.00;48.20
4509;DHT22;2267;48.816;9.230;2023-10-13T12:56:16;30.10;47.90
4509;DHT22;2267;48.816;9.230;2023-10-13T12:58:43;30.10;48.60
4509;DHT22;2267;48.816;9.230;2023-10-13T13:01:23;30.30;48.10
4509;DHT22;2267;48.816;9.230;2023-10-13T13:03:52;30.40;48.20
4509;DHT22;2267;48.816;9.230;2023-10-13T13:06:25;30.50;48.10
4509;DHT22;2267;48.816;9.230;2023-10-13T13:09:01;30.60;48.20
4509;DHT22;2267;48.816;9.230;2023-10-13T13:11:28;30.70;48.10
4509;DHT22;2267;48.816;9.230;2023-10-13T13:13:58;30.60;46.90
4509;DHT22;2267;48.816;9.230;2023-10-13T13:16:25;30.60;47.50
4509;DHT22;2267;48.816;9.230;2023-10-13T13:18:52;30.60;47.40
4509;DHT22;2267;48.816;9.230;2023-10-13T13:21:21;30.60;47.40
4509;DHT22;2267;48.816;9.230;2023-10-13T13:23:51;30.70;47.40
4509;DHT22;2267;48.816;9.230;2023-10-13T13:26:18;30.80;47.40
4509;DHT22;2267;48.816;9.230;2023-10-13T13:28:46;30.80;46.80
4509;DHT22;2267;48.816;9.230;2023-10-13T13:31:19;30.80;46.40
4509;DHT22;2267;48.816;9.230;2023-10-13T13:33:52;30.80;46.80
4509;DHT22;2267;48.816;9.230;2023-10-13T13:36:19;30.80;46.80
4509;DHT22;2267;48.816;9.230;2023-10-13T13:38:46;30.90;47.20
4509;DHT22;2267;48.816;9.230;2023-10-13T13:41:16;31.00;46.90
4509;DHT22;2267;48.816;9.230;2023-10-13T13:43:48;30.90;45.90
4509;DHT22;2267;48.816;9.230;2023-10-13T13:46:27;30.90;45.90
4509;DHT22;2267;48.816;9.230;2023-10-13T13:48:59;30.90;45.70
4509;DHT22;2267;48.816;9.230;2023-10-13T13:51:28;30.80;45.80
4509;DHT22;2267;48.816;9.230;2023-10-13T13:53:56;30.60;45.00
4509;DHT22;2267;48.816;9.230;2023-10-13T13:56:23;30.40;45.00
4509;DHT22;2267;48.816;9.230;2023-10-13T13:58:54;30.30;45.00
4509;DHT22;2267;48.816;9.230;2023-10-13T14:01:22;30.20;44.60
4509;DHT22;2267;48.816;9.230;2023-10-13T14:03:53;30.20;44.40
4509;DHT22;2267;48.816;9.230;2023-10-13T14:06:24;30.10;44.40
4509;DHT22;2267;48.816;9.230;2023-10-13T14:08:53;30.10;44.50
4509;DHT22;2267;48.816;9.230;2023-10-13T14:11:27;30.00;44.90
4509;DHT22;2267;48.816;9.230;2023-10-13T14:14:07;30.00;44.10
4509;DHT22;2267;48.816;9.230;2023-10-13T14:16:52;29.90;44.70
4509;DHT22;2267;48.816;9.230;2023-10-13T14:19:20;29.70;44.50
4509;DHT22;2267;48.816;9.230;2023-10-13T14:21:57;29.60;44.70
4509;DHT22;2267;48.816;9.230;2023-10-13T14:24:24;29.50;44.80
4509;DHT22;2267;48.816;9.230;2023-10-13T14:26:59;29.40;44.90
4509;DHT22;2267;48.816;9.230;2023-10-13T14:29:35;29.30;45.10
4509;DHT22;2267;48.816;9.230;2023-10-13T14:32:10;29.20;45.10
4509;DHT22;2267;48.816;9.230;2023-10-13T14:34:45;29.10;45.10
4509;DHT22;2267;48.816;9.230;2023-10-13T14:37:15;29.00;45.20
4509;DHT22;2267;48.816;9.230;2023-10-13T14:39:53;28.90;45.50
4509;DHT22;2267;48.816;9.230;2023-10-13T14:42:25;28.80;46.10
4509;DHT22;2267;48.816;9.230;2023-10-13T14:44:52;28.70;46.50
4509;DHT22;2267;48.816;9.230;2023-10-13T14:47:26;28.70;46.60
4509;DHT22;2267;48.816;9.230;2023-10-13T14:49:56;28.60;46.40
4509;DHT22;2267;48.816;9.230;2023-10-13T14:52:28;28.50;45.90
4509;DHT22;2267;48.816;9.230;2023-10-13T14:54:59;28.40;45.70
4509;DHT22;2267;48.816;9.230;2023-10-13T14:57:26;28.40;45.50
4509;DHT22;2267;48.816;9.230;2023-10-13T14:59:54;28.30;45.50
4509;DHT22;2267;48.816;9.230;2023-10-13T15:02:21;28.20;45.60
4509;DHT22;2267;48.816;9.230;2023-10-13T15:04:49;28.20;46.20
4509;DHT22;2267;48.816;9.230;2023-10-13T15:07:16;28.10;45.20
4509;DHT22;2267;48.816;9.230;2023-10-13T15:09:44;28.10;45.40
4509;DHT22;2267;48.816;9.230;2023-10-13T15:12:11;28.00;45.40
4509;DHT22;2267;48.816;9.230;2023-10-13T15:14:44;28.00;45.70
4509;DHT22;2267;48.816;9.230;2023-10-13T15:17:11;27.90;45.60
4509;DHT22;2267;48.816;9.230;2023-10-13T15:19:43;27.90;45.00
4509;DHT22;2267;48.816;9.230;2023-10-13T15:22:10;27.80;44.70
4509;DHT22;2267;48.816;9.230;2023-10-13T15:24:43;27.80;44.50
4509;DHT22;2267;48.816;9.230;2023-10-13T15:27:12;27.80;44.50
4509;DHT22;2267;48.816;9.230;2023-10-13T15:29:39;27.70;44.70
4509;DHT22;2267;48.816;9.230;2023-10-13T15:32:06;27.70;44.80
4509;DHT22;2267;48.816;9.230;2023-10-13T15:34:53;27.70;44.90
4509;DHT22;2267;48.816;9.230;2023-10-13T15:37:21;27.60;44.80
4509;DHT22;2267;48.816;9.230;2023-10-13T15:39:52;27.60;44.30
4509;DHT22;2267;48.816;9.230;2023-10-13T15:42:19;27.50;44.70
4509;DHT22;2267;48.816;9.230;2023-10-13T15:44:47;27.50;45.60
4509;DHT22;2267;48.816;9.230;2023-10-13T15:47:16;27.50;45.00
4509;DHT22;2267;48.816;9.230;2023-10-13T15:49:46;27.40;45.20
4509;DHT22;2267;48.816;9.230;2023-10-13T15:52:13;27.40;45.20
4509;DHT22;2267;48.816;9.230;2023-10-13T15:54:42;27.30;45.30
4509;DHT22;2267;48.816;9.230;2023-10-13T15:57:09;27.30;45.40
4509;DHT22;2267;48.816;9.230;2023-10-13T15:59:43;27.30;44.90
4509;DHT22;2267;48.816;9.230;2023-10-13T16:02:13;27.20;45.10
4509;DHT22;2267;48.816;9.230;2023-10-13T16:04:44;27.20;44.70
4509;DHT22;2267;48.816;9.230;2023-10-13T16:07:11;27.10;44.70
4509;DHT22;2267;48.816;9.230;2023-10-13T16:09:38;27.10;45.10
4509;DHT22;2267;48.816;9.230;2023-10-13T16:12:05;27.10;44.60
4509;DHT22;2267;48.816;9.230;2023-10-13T16:14:32;27.00;45.10
4509;DHT22;2267;48.816;9.230;2023-10-13T16:17:02;27.00;45.50
4509;DHT22;2267;48.816;9.230;2023-10-13T16:19:31;27.00;47.10
4509;DHT22;2267;48.816;9.230;2023-10-13T16:21:58;26.90;47.30
4509;DHT22;2267;48.816;9.230;2023-10-13T16:24:24;26.90;53.00
4509;DHT22;2267;48.816;9.230;2023-10-13T16:26:52;26.90;52.30
4509;DHT22;2267;48.816;9.230;2023-10-13T16:29:25;26.80;51.60
4509;DHT22;2267;48.816;9.230;2023-10-13T16:31:57;26.80;52.40
4509;DHT22;2267;48.816;9.230;2023-10-13T16:34:26;26.70;50.10
4509;DHT22;2267;48.816;9.230;2023-10-13T16:36:52;26.70;51.20
4509;DHT22;2267;48.816;9.230;2023-10-13T16:39:22;26.70;50.70
4509;DHT22;2267;48.816;9.230;2023-10-13T16:41:50;26.60;50.50
4509;DHT22;2267;48.816;9.230;2023-10-13T16:44:22;26.50;48.50
4509;DHT22;2267;48.816;9.230;2023-10-13T16:46:53;26.50;48.70
4509;DHT22;2267;48.816;9.230;2023-10-13T16:49:27;26.50;50.80
4509;DHT22;2267;48.816;9.230;2023-10-13T16:51:54;26.50;51.40
4509;DHT22;2267;48.816;9.230;2023-10-13T16:54:21;26.40;49.50
4509;DHT22;2267;48.816;9.230;2023-10-13T16:56:48;26.40;51.40
4509;DHT22;2267;48.816;9.230;2023-10-13T16:59:17;26.30;50.50